createdAt,value
2023-03-06T00:00:51.898Z,95159.48
2023-03-06T00:03:19.430Z,95157.97
2023-03-06T00:05:47.183Z,95156.16
2023-03-06T00:08:13.801Z,95156.71
2023-03-06T00:10:40.612Z,95152.36
2023-03-06T00:13:11.228Z,95151.48
2023-03-06T00:15:37.949Z,95152.27
2023-03-06T00:18:05.651Z,95153.54
2023-03-06T00:20:33.524Z,95145.90
2023-03-06T00:23:00.299Z,95141.92
2023-03-06T00:25:27.063Z,95141.23
2023-03-06T00:27:53.572Z,95140.11
2023-03-06T00:30:22.982Z,95143.34
2023-03-06T00:32:49.728Z,95142.14
2023-03-06T00:35:16.549Z,95144.33
2023-03-06T00:37:43.898Z,95148.96
2023-03-06T00:40:19.253Z,95149.77
2023-03-06T00:42:47.126Z,95154.17
2023-03-06T00:45:14.291Z,95149.77
2023-03-06T00:47:41.558Z,95151.84
2023-03-06T00:50:10.448Z,95149.84
2023-03-06T00:52:37.418Z,95147.88
2023-03-06T00:55:05.296Z,95144.11
2023-03-06T00:57:31.833Z,95143.30
2023-03-06T00:59:58.585Z,95138.58
2023-03-06T01:02:25.549Z,95138.88
2023-03-06T01:04:54.862Z,95141.55
2023-03-06T01:07:21.684Z,95141.42
2023-03-06T01:09:48.420Z,95139.10
2023-03-06T01:12:15.596Z,95139.00
2023-03-06T01:14:42.181Z,95138.81
2023-03-06T01:17:09.898Z,95142.48
2023-03-06T01:19:36.631Z,95141.70
2023-03-06T01:22:03.181Z,95144.21
2023-03-06T01:24:29.706Z,95152.64
2023-03-06T01:26:56.368Z,95155.69
2023-03-06T01:29:23.015Z,95156.66
2023-03-06T01:31:49.612Z,95155.88
2023-03-06T01:34:16.231Z,95159.42
2023-03-06T01:36:42.933Z,95154.85
2023-03-06T01:39:09.922Z,95148.45
2023-03-06T01:41:36.702Z,95144.74
2023-03-06T01:44:03.397Z,95139.89
2023-03-06T01:46:56.904Z,95145.83
2023-03-06T01:49:28.780Z,95149.66
2023-03-06T01:52:01.218Z,95152.13
2023-03-06T01:54:35.338Z,95153.64
2023-03-06T01:57:09.028Z,95152.27
2023-03-06T01:59:37.861Z,95146.26
2023-03-06T02:02:07.559Z,95150.53
2023-03-06T02:04:37.654Z,95145.66
2023-03-06T02:07:05.557Z,95146.49
2023-03-06T02:09:35.326Z,95145.98
2023-03-06T02:12:08.616Z,95143.39
2023-03-06T02:14:35.452Z,95135.52
2023-03-06T02:17:03.439Z,95133.27
2023-03-06T02:19:55.674Z,95132.77
2023-03-06T02:22:25.253Z,95134.31
2023-03-06T02:25:07.252Z,95130.00
2023-03-06T02:27:34.144Z,95133.25
2023-03-06T02:30:06.409Z,95128.59
2023-03-06T02:32:33.213Z,95127.14
2023-03-06T02:34:59.824Z,95123.42
2023-03-06T02:37:28.190Z,95121.27
2023-03-06T02:40:08.929Z,95122.08
2023-03-06T02:42:35.547Z,95121.40
2023-03-06T02:45:04.891Z,95121.92
2023-03-06T02:47:31.425Z,95118.48
2023-03-06T02:49:58.104Z,95111.58
2023-03-06T02:52:24.678Z,95111.80
2023-03-06T02:54:51.187Z,95115.91
2023-03-06T02:57:17.734Z,95113.19
2023-03-06T02:59:44.772Z,95113.95
2023-03-06T03:02:11.525Z,95115.36
2023-03-06T03:04:38.238Z,95120.64
2023-03-06T03:07:05.758Z,95118.45
2023-03-06T03:09:36.224Z,95120.64
2023-03-06T03:12:05.165Z,95113.13
2023-03-06T03:14:32.525Z,95112.56
2023-03-06T03:17:00.822Z,95109.30
2023-03-06T03:19:27.700Z,95106.23
2023-03-06T03:21:55.090Z,95108.45
2023-03-06T03:24:22.882Z,95109.32
2023-03-06T03:26:49.932Z,95108.80
2023-03-06T03:29:19.921Z,95108.45
2023-03-06T03:31:48.009Z,95112.43
2023-03-06T03:34:15.229Z,95112.94
2023-03-06T03:36:41.874Z,95106.19
2023-03-06T03:39:10.019Z,95099.70
2023-03-06T03:41:37.266Z,95095.69
2023-03-06T03:44:06.308Z,95088.38
2023-03-06T03:46:33.049Z,95087.23
2023-03-06T03:49:00.216Z,95083.73
2023-03-06T03:51:27.335Z,95074.62
2023-03-06T03:53:56.148Z,95080.30
2023-03-06T03:56:24.070Z,95077.96
2023-03-06T03:58:56.288Z,95080.67
2023-03-06T04:01:24.066Z,95082.57
2023-03-06T04:03:50.681Z,95076.77
2023-03-06T04:06:17.940Z,95075.16
2023-03-06T04:08:46.422Z,95075.31
2023-03-06T04:11:13.304Z,95073.32
2023-03-06T04:13:40.020Z,95077.05
2023-03-06T04:16:06.955Z,95077.25
2023-03-06T04:18:34.000Z,95080.60
2023-03-06T04:21:04.008Z,95083.38
2023-03-06T04:23:30.868Z,95077.91
2023-03-06T04:25:57.673Z,95075.73
2023-03-06T04:28:24.749Z,95072.45
2023-03-06T04:30:51.430Z,95070.86
2023-03-06T04:33:18.393Z,95070.42
2023-03-06T04:35:44.957Z,95062.64
2023-03-06T04:38:16.004Z,95063.07
2023-03-06T04:40:44.806Z,95066.47
2023-03-06T04:43:11.735Z,95067.37
2023-03-06T04:45:38.299Z,95072.65
2023-03-06T04:48:05.231Z,95068.98
2023-03-06T04:50:32.488Z,95071.98
2023-03-06T04:53:00.597Z,95074.55
2023-03-06T04:55:27.835Z,95072.80
2023-03-06T04:57:54.480Z,95069.86
2023-03-06T05:00:24.914Z,95073.55
2023-03-06T05:02:51.859Z,95068.52
2023-03-06T05:05:18.862Z,95065.90
2023-03-06T05:07:46.172Z,95067.62
2023-03-06T05:10:16.039Z,95065.09
2023-03-06T05:12:43.506Z,95063.03
2023-03-06T05:15:11.476Z,95061.11
2023-03-06T05:17:38.502Z,95060.42
2023-03-06T05:20:10.148Z,95055.41
2023-03-06T05:22:36.702Z,95057.67
2023-03-06T05:25:04.399Z,95054.81
2023-03-06T05:27:31.023Z,95053.38
2023-03-06T05:29:57.672Z,95059.54
2023-03-06T05:32:24.344Z,95054.98
2023-03-06T05:34:51.263Z,95058.09
2023-03-06T05:37:17.938Z,95052.77
2023-03-06T05:39:44.832Z,95053.98
2023-03-06T05:42:11.362Z,95050.80
2023-03-06T05:44:37.942Z,95054.50
2023-03-06T05:47:04.631Z,95054.38
2023-03-06T05:49:33.152Z,95049.59
2023-03-06T05:52:00.806Z,95047.92
2023-03-06T05:54:27.317Z,95048.36
2023-03-06T05:56:53.973Z,95054.73
2023-03-06T05:59:20.470Z,95055.35
2023-03-06T06:01:47.054Z,95060.92
2023-03-06T06:04:14.339Z,95062.14
2023-03-06T06:06:40.892Z,95056.34
2023-03-06T06:09:08.381Z,95052.08
2023-03-06T06:11:34.898Z,95053.53
2023-03-06T06:14:01.426Z,95050.96
2023-03-06T06:16:27.960Z,95046.66
2023-03-06T06:18:56.249Z,95047.52
2023-03-06T06:21:22.781Z,95047.06
2023-03-06T06:23:49.363Z,95049.02
2023-03-06T06:26:16.039Z,95047.91
2023-03-06T06:28:42.740Z,95046.95
2023-03-06T06:31:11.733Z,95051.66
2023-03-06T06:33:40.269Z,95050.98
2023-03-06T06:36:18.540Z,95048.08
2023-03-06T06:38:45.203Z,95056.52
2023-03-06T06:41:36.100Z,95052.66
2023-03-06T06:43:59.173Z,95051.44
2023-03-06T06:47:14.301Z,95051.05
2023-03-06T06:49:14.075Z,95043.06
2023-03-06T06:51:41.032Z,95044.36
2023-03-06T06:54:07.929Z,95043.92
2023-03-06T06:56:34.701Z,95035.59
2023-03-06T06:59:15.754Z,95037.94
2023-03-06T07:01:43.130Z,95045.20
2023-03-06T07:04:13.109Z,95042.98
2023-03-06T07:06:42.213Z,95041.05
2023-03-06T07:09:09.507Z,95040.06
2023-03-06T07:11:37.030Z,95040.69
2023-03-06T07:14:03.580Z,95039.39
2023-03-06T07:16:30.318Z,95039.57
2023-03-06T07:18:56.949Z,95037.55
2023-03-06T07:21:23.704Z,95041.83
2023-03-06T07:23:50.260Z,95039.36
2023-03-06T07:26:16.965Z,95036.84
2023-03-06T07:28:52.415Z,95037.61
2023-03-06T07:31:22.120Z,95044.58
2023-03-06T07:33:49.994Z,95043.36
2023-03-06T07:36:17.590Z,95043.52
2023-03-06T07:38:44.462Z,95043.13
2023-03-06T07:41:13.178Z,95043.65
2023-03-06T07:43:40.891Z,95047.77
2023-03-06T07:46:08.520Z,95042.84
2023-03-06T07:48:36.417Z,95047.66
2023-03-06T07:51:06.454Z,95052.36
2023-03-06T07:53:34.039Z,95049.99
2023-03-06T07:56:07.870Z,95051.62
2023-03-06T07:58:35.992Z,95053.75
2023-03-06T08:01:08.617Z,95056.77
2023-03-06T08:03:36.882Z,95056.76
2023-03-06T08:06:12.658Z,95056.36
2023-03-06T08:08:41.734Z,95059.46
2023-03-06T08:11:13.380Z,95059.04
2023-03-06T08:13:41.156Z,95056.55
2023-03-06T08:16:08.373Z,95057.34
2023-03-06T08:18:35.978Z,95058.27
2023-03-06T08:21:07.176Z,95058.52
2023-03-06T08:23:34.979Z,95060.96
2023-03-06T08:26:13.916Z,95052.60
2023-03-06T08:28:40.809Z,95059.00
2023-03-06T08:31:29.590Z,95060.00
2023-03-06T08:33:58.620Z,95060.88
2023-03-06T08:36:25.262Z,95062.49
2023-03-06T08:38:52.338Z,95062.76
2023-03-06T08:41:20.388Z,95064.27
2023-03-06T08:43:47.256Z,95061.77
2023-03-06T08:46:13.872Z,95059.14
2023-03-06T08:48:40.921Z,95061.65
2023-03-06T08:51:09.118Z,95065.65
2023-03-06T08:53:43.210Z,95067.63
2023-03-06T08:56:24.353Z,95064.47
2023-03-06T08:58:51.749Z,95067.88
2023-03-06T09:01:26.963Z,95063.39
2023-03-06T09:03:55.859Z,95066.52
2023-03-06T09:06:23.726Z,95067.23
2023-03-06T09:08:51.731Z,95066.70
2023-03-06T09:11:19.752Z,95069.26
2023-03-06T09:13:46.768Z,95070.88
2023-03-06T09:16:13.496Z,95070.52
2023-03-06T09:18:40.356Z,95070.25
2023-03-06T09:21:08.605Z,95063.98
2023-03-06T09:23:38.725Z,95064.11
2023-03-06T09:26:06.754Z,95066.11
2023-03-06T09:28:36.413Z,95061.33
2023-03-06T09:31:07.741Z,95065.81
2023-03-06T09:33:34.436Z,95056.38
2023-03-06T09:36:01.941Z,95058.23
2023-03-06T09:38:29.191Z,95056.89
2023-03-06T09:41:11.777Z,95058.06
2023-03-06T09:43:45.815Z,95057.15
2023-03-06T09:46:24.313Z,95055.96
2023-03-06T09:49:00.606Z,95054.97
2023-03-06T09:51:33.104Z,95051.48
2023-03-06T09:54:13.655Z,95054.35
2023-03-06T09:56:48.318Z,95053.17
2023-03-06T09:59:24.324Z,95050.76
2023-03-06T10:02:01.116Z,95048.44
2023-03-06T10:04:36.130Z,95045.89
2023-03-06T10:07:19.632Z,95043.14
2023-03-06T10:09:59.234Z,95044.39
2023-03-06T10:12:28.942Z,95044.04
2023-03-06T10:15:13.726Z,95040.85
2023-03-06T10:17:41.914Z,95042.75
2023-03-06T10:20:31.077Z,95036.98
2023-03-06T10:23:06.860Z,95034.69
2023-03-06T10:25:49.326Z,95033.63
2023-03-06T10:28:20.569Z,95028.25
2023-03-06T10:31:32.618Z,95026.71
2023-03-06T10:34:22.143Z,95024.42
2023-03-06T10:36:49.959Z,95019.20
2023-03-06T10:39:19.202Z,95021.27
2023-03-06T10:41:47.213Z,95019.92
2023-03-06T10:44:15.336Z,95018.46
2023-03-06T10:46:45.300Z,95016.26
2023-03-06T10:49:23.470Z,95013.60
2023-03-06T10:51:57.933Z,95014.09
2023-03-06T10:54:25.916Z,95010.30
2023-03-06T10:56:52.492Z,95007.84
2023-03-06T10:59:27.599Z,95003.27
2023-03-06T11:02:15.229Z,94998.25
2023-03-06T11:04:46.616Z,94999.55
2023-03-06T11:07:21.021Z,94997.27
2023-03-06T11:09:56.592Z,94992.23
2023-03-06T11:12:31.670Z,94993.14
2023-03-06T11:15:10.016Z,94993.66
2023-03-06T11:17:48.992Z,94986.73
2023-03-06T11:20:20.002Z,94982.92
2023-03-06T11:22:51.699Z,94983.42
2023-03-06T11:25:20.318Z,94979.21
2023-03-06T11:27:55.151Z,94979.52
2023-03-06T11:30:31.874Z,94974.00
2023-03-06T11:33:02.661Z,94971.40
2023-03-06T11:36:00.489Z,94970.78
2023-03-06T11:38:34.938Z,94968.34
2023-03-06T11:41:12.694Z,94967.71
2023-03-06T11:44:07.570Z,94970.27
2023-03-06T11:46:40.280Z,94969.09
2023-03-06T11:49:25.489Z,94963.21
2023-03-06T11:52:02.099Z,94959.48
2023-03-06T11:54:28.671Z,94957.46
2023-03-06T11:57:06.000Z,94961.56
2023-03-06T11:59:35.135Z,94954.91
2023-03-06T12:02:21.235Z,94949.30
2023-03-06T12:04:56.673Z,94946.61
2023-03-06T12:07:33.427Z,94944.98
2023-03-06T12:10:38.062Z,94940.54
2023-03-06T12:16:15.631Z,94938.69
2023-03-06T12:18:51.033Z,94934.77
2023-03-06T12:21:32.587Z,94928.98
2023-03-06T12:24:16.838Z,94927.17
2023-03-06T12:27:16.050Z,94926.55
2023-03-06T12:30:10.193Z,94924.70
2023-03-06T12:32:48.961Z,94921.88
2023-03-06T12:35:18.345Z,94915.58
2023-03-06T12:38:29.626Z,94918.15
2023-03-06T12:41:20.853Z,94922.36
2023-03-06T12:44:05.928Z,94917.94
2023-03-06T12:46:43.366Z,94915.84
2023-03-06T12:49:33.055Z,94911.13
2023-03-06T12:52:01.672Z,94908.64
2023-03-06T12:54:32.714Z,94908.24
2023-03-06T12:57:00.102Z,94905.90
2023-03-06T12:59:38.579Z,94902.04
2023-03-06T13:02:05.119Z,94902.84
2023-03-06T13:04:47.521Z,94901.10
2023-03-06T13:07:16.720Z,94899.81
2023-03-06T13:10:05.188Z,94895.90
2023-03-06T13:12:49.244Z,94887.29
2023-03-06T13:15:43.372Z,94891.39
2023-03-06T13:18:21.833Z,94885.93
2023-03-06T13:20:48.380Z,94884.13
2023-03-06T13:23:33.796Z,94877.92
2023-03-06T13:26:08.818Z,94871.90
2023-03-06T13:28:51.808Z,94873.11
2023-03-06T13:31:33.597Z,94862.39
2023-03-06T13:34:02.846Z,94869.11
2023-03-06T13:36:29.433Z,94870.50
2023-03-06T13:39:00.653Z,94871.65
2023-03-06T13:41:30.173Z,94870.73
2023-03-06T13:44:05.305Z,94875.35
2023-03-06T13:46:35.921Z,94879.95
2023-03-06T13:49:12.233Z,94889.35
2023-03-06T13:52:02.108Z,94900.05
2023-03-06T13:54:41.021Z,94900.36
2023-03-06T13:57:16.934Z,94904.91
2023-03-06T14:00:12.046Z,94907.13
2023-03-06T14:03:16.496Z,94912.59
2023-03-06T14:05:48.955Z,94910.81
2023-03-06T14:08:19.241Z,94907.34
2023-03-06T14:10:48.580Z,94897.67
2023-03-06T14:13:19.659Z,94893.60
2023-03-06T14:15:52.207Z,94900.25
2023-03-06T14:18:20.788Z,94900.90
2023-03-06T14:21:02.228Z,94902.80
2023-03-06T14:23:35.001Z,94901.39
2023-03-06T14:26:04.826Z,94905.56
2023-03-06T14:28:33.593Z,94902.23
2023-03-06T14:31:02.292Z,94899.05
2023-03-06T14:33:34.061Z,94898.25
2023-03-06T14:36:04.310Z,94889.50
2023-03-06T14:38:38.150Z,94894.50
2023-03-06T14:41:05.892Z,94891.63
2023-03-06T14:43:32.851Z,94894.35
2023-03-06T14:46:05.869Z,94887.66
2023-03-06T14:48:43.824Z,94881.36
2023-03-06T14:51:21.445Z,94874.03
2023-03-06T14:53:53.581Z,94874.81
2023-03-06T14:56:22.804Z,94872.84
2023-03-06T14:58:52.114Z,94861.32
2023-03-06T15:01:40.497Z,94858.15
2023-03-06T15:04:29.780Z,94857.05
2023-03-06T15:06:58.539Z,94854.48
2023-03-06T15:09:29.651Z,94852.29
2023-03-06T15:12:29.269Z,94848.15
2023-03-06T15:15:22.827Z,94847.16
2023-03-06T15:17:49.549Z,94845.32
2023-03-06T15:20:55.304Z,94844.50
2023-03-06T15:23:34.077Z,94846.29
2023-03-06T15:26:30.888Z,94845.63
2023-03-06T15:29:24.680Z,94848.45
2023-03-06T15:31:51.383Z,94847.85
2023-03-06T15:34:24.128Z,94847.73
2023-03-06T15:36:53.621Z,94844.23
2023-03-06T15:39:25.886Z,94846.00
2023-03-06T15:42:15.500Z,94851.33
2023-03-06T15:44:42.264Z,94849.92
2023-03-06T15:47:11.338Z,94848.61
2023-03-06T15:49:39.337Z,94851.23
2023-03-06T15:52:06.763Z,94851.59
2023-03-06T15:54:33.681Z,94855.08
2023-03-06T15:57:02.207Z,94856.37
2023-03-06T15:59:32.892Z,94856.11
2023-03-06T16:02:03.717Z,94854.28
2023-03-06T16:04:30.327Z,94857.70
2023-03-06T16:06:56.958Z,94856.89
2023-03-06T16:15:28.274Z,94855.83
2023-03-06T16:17:57.531Z,94852.42
2023-03-06T16:20:28.335Z,94853.05
2023-03-06T16:22:56.644Z,94854.56
2023-03-06T16:25:27.751Z,94854.45
2023-03-06T16:27:58.883Z,94858.34
2023-03-06T16:30:33.380Z,94855.39
2023-03-06T16:33:01.975Z,94856.95
2023-03-06T16:35:29.950Z,94857.24
2023-03-06T16:37:59.874Z,94863.86
2023-03-06T16:40:37.740Z,94861.89
2023-03-06T16:43:05.783Z,94862.90
2023-03-06T16:45:37.651Z,94862.23
2023-03-06T16:48:06.383Z,94870.71
2023-03-06T16:50:38.581Z,94873.63
2023-03-06T16:53:07.848Z,94879.17
2023-03-06T16:55:36.033Z,94881.48
2023-03-06T16:58:04.533Z,94882.20
2023-03-06T17:00:34.229Z,94882.72
2023-03-06T17:03:02.705Z,94881.45
2023-03-06T17:05:33.868Z,94878.98
2023-03-06T17:08:02.096Z,94880.36
2023-03-06T17:10:30.876Z,94877.69
2023-03-06T17:12:59.469Z,94875.27
2023-03-06T17:15:27.407Z,94875.31
2023-03-06T17:17:55.700Z,94873.13
2023-03-06T17:20:23.915Z,94873.39
2023-03-06T17:22:51.943Z,94877.14
2023-03-06T17:25:19.990Z,94879.19
2023-03-06T17:27:48.006Z,94878.11
2023-03-06T17:30:16.366Z,94879.63
2023-03-06T17:32:44.375Z,94879.73
2023-03-06T17:35:13.018Z,94878.76
2023-03-06T17:37:40.959Z,94879.83
2023-03-06T17:40:10.200Z,94881.83
2023-03-06T17:42:38.123Z,94877.75
2023-03-06T17:45:09.624Z,94876.98
2023-03-06T17:47:38.192Z,94873.08
2023-03-06T17:50:06.980Z,94871.42
2023-03-06T17:52:35.474Z,94874.42
2023-03-06T17:55:03.712Z,94876.83
2023-03-06T17:57:31.726Z,94881.83
2023-03-06T17:59:59.872Z,94878.43
2023-03-06T18:02:28.402Z,94877.23
2023-03-06T18:04:58.197Z,94876.54
2023-03-06T18:07:26.719Z,94877.78
2023-03-06T18:09:54.821Z,94883.06
2023-03-06T18:12:22.953Z,94882.12
2023-03-06T18:14:51.044Z,94883.41
2023-03-06T18:17:19.087Z,94878.88
2023-03-06T18:19:47.177Z,94874.72
2023-03-06T18:22:15.297Z,94876.51
2023-03-06T18:24:43.368Z,94876.75
2023-03-06T18:27:11.269Z,94873.00
2023-03-06T18:29:39.258Z,94873.94
2023-03-06T18:32:10.670Z,94874.04
2023-03-06T18:34:38.820Z,94871.80
2023-03-06T18:37:06.992Z,94872.70
2023-03-06T18:39:35.276Z,94872.08
2023-03-06T18:42:03.526Z,94874.73
2023-03-06T18:44:31.503Z,94874.27
2023-03-06T18:46:59.703Z,94877.77
2023-03-06T18:49:28.051Z,94875.89
2023-03-06T18:51:56.408Z,94877.91
2023-03-06T18:54:28.389Z,94877.16
2023-03-06T18:56:56.655Z,94874.92
2023-03-06T18:59:25.973Z,94879.62
2023-03-06T19:01:57.655Z,94878.90
2023-03-06T19:04:27.133Z,94875.23
2023-03-06T19:06:55.456Z,94882.69
2023-03-06T19:09:23.638Z,94882.40
2023-03-06T19:11:53.733Z,94880.18
2023-03-06T19:14:23.010Z,94882.83
2023-03-06T19:16:51.183Z,94878.64
2023-03-06T19:19:20.074Z,94879.56
2023-03-06T19:21:50.356Z,94882.50
2023-03-06T19:24:18.342Z,94881.81
2023-03-06T19:26:46.253Z,94880.08
2023-03-06T19:29:14.315Z,94878.91
2023-03-06T19:31:42.572Z,94874.73
2023-03-06T19:34:10.851Z,94871.25
2023-03-06T19:36:40.935Z,94870.03
2023-03-06T19:39:09.739Z,94870.41
2023-03-06T19:41:37.870Z,94868.16
2023-03-06T19:44:06.250Z,94869.84
2023-03-06T19:46:36.189Z,94867.63
2023-03-06T19:49:11.780Z,94868.91
2023-03-06T19:51:40.666Z,94864.11
2023-03-06T19:54:11.374Z,94865.15
2023-03-06T19:56:40.098Z,94861.58
2023-03-06T19:59:08.025Z,94857.73
2023-03-06T20:01:36.034Z,94860.98
2023-03-06T20:04:03.994Z,94861.61
2023-03-06T20:06:33.863Z,94863.49
2023-03-06T20:09:04.845Z,94863.20
2023-03-06T20:11:32.809Z,94874.91
2023-03-06T20:14:03.778Z,94871.36
2023-03-06T20:16:32.821Z,94873.73
2023-03-06T20:19:02.166Z,94870.80
2023-03-06T20:21:35.405Z,94871.84
2023-03-06T20:24:05.080Z,94863.19
2023-03-06T20:26:34.928Z,94865.61
2023-03-06T20:29:02.951Z,94865.13
2023-03-06T20:31:31.066Z,94864.95
2023-03-06T20:33:59.866Z,94863.39
2023-03-06T20:36:37.247Z,94862.85
2023-03-06T20:39:09.046Z,94865.21
2023-03-06T20:41:37.105Z,94865.05
2023-03-06T20:44:07.277Z,94859.86
2023-03-06T20:46:35.335Z,94856.55
2023-03-06T20:49:05.273Z,94856.16
2023-03-06T20:51:37.532Z,94855.80
2023-03-06T20:54:07.541Z,94851.95
2023-03-06T20:56:36.945Z,94850.10
2023-03-06T20:59:05.939Z,94847.86
2023-03-06T21:01:38.403Z,94852.38
2023-03-06T21:04:08.739Z,94849.88
2023-03-06T21:06:39.798Z,94850.64
2023-03-06T21:09:07.776Z,94847.76
2023-03-06T21:11:35.849Z,94846.45
2023-03-06T21:14:04.153Z,94845.64
2023-03-06T21:16:32.239Z,94842.95
2023-03-06T21:19:00.615Z,94839.59
2023-03-06T21:21:31.483Z,94846.93
2023-03-06T21:24:00.420Z,94845.67
2023-03-06T21:26:30.509Z,94842.28
2023-03-06T21:28:59.706Z,94846.79
2023-03-06T21:31:28.674Z,94846.05
2023-03-06T21:33:58.763Z,94845.74
2023-03-06T21:36:27.971Z,94847.24
2023-03-06T21:38:56.093Z,94847.83
2023-03-06T21:41:27.782Z,94849.08
2023-03-06T21:43:57.543Z,94847.14
2023-03-06T21:46:26.325Z,94847.23
2023-03-06T21:48:57.889Z,94844.41
2023-03-06T21:51:27.166Z,94843.17
2023-03-06T21:53:55.935Z,94836.87
2023-03-06T21:56:25.524Z,94836.78
2023-03-06T21:58:53.862Z,94836.39
2023-03-06T22:01:25.028Z,94838.42
2023-03-06T22:03:53.939Z,94837.38
2023-03-06T22:06:27.653Z,94834.79
2023-03-06T22:08:59.619Z,94835.92
2023-03-06T22:11:31.680Z,94833.23
2023-03-06T22:14:04.521Z,94832.06
2023-03-06T22:16:34.395Z,94834.27
2023-03-06T22:19:02.839Z,94830.36
2023-03-06T22:21:31.027Z,94833.45
2023-03-06T22:24:01.061Z,94825.42
2023-03-06T22:26:29.944Z,94830.67
2023-03-06T22:28:58.260Z,94828.94
2023-03-06T22:31:28.550Z,94828.20
2023-03-06T22:33:59.032Z,94829.09
2023-03-06T22:36:28.286Z,94825.95
2023-03-06T22:38:59.341Z,94825.88
2023-03-06T22:41:28.243Z,94824.59
2023-03-06T22:44:00.721Z,94827.80
2023-03-06T22:46:29.897Z,94825.71
2023-03-06T22:48:59.212Z,94822.91
2023-03-06T22:51:28.339Z,94820.94
2023-03-06T22:53:56.684Z,94824.92
2023-03-06T22:56:25.273Z,94821.20
2023-03-06T22:58:53.415Z,94827.05
2023-03-06T23:01:25.323Z,94822.41
2023-03-06T23:03:56.278Z,94825.27
2023-03-06T23:06:28.299Z,94825.11
2023-03-06T23:09:04.218Z,94824.96
2023-03-06T23:11:33.109Z,94823.52
2023-03-06T23:14:19.787Z,94823.14
2023-03-06T23:17:06.397Z,94823.27
2023-03-06T23:19:53.334Z,94821.40
2023-03-06T23:22:39.787Z,94819.71
2023-03-06T23:25:26.197Z,94814.45
2023-03-06T23:27:55.747Z,94816.73
2023-03-06T23:30:23.766Z,94813.65
2023-03-06T23:32:51.730Z,94816.55
2023-03-06T23:35:20.296Z,94818.48
2023-03-06T23:37:48.252Z,94815.98
2023-03-06T23:40:16.921Z,94813.53
2023-03-06T23:42:45.411Z,94814.71
2023-03-06T23:45:13.732Z,94812.44
2023-03-06T23:47:42.189Z,94815.43
2023-03-06T23:50:11.014Z,94819.20
2023-03-06T23:52:40.472Z,94816.52
2023-03-06T23:55:08.991Z,94818.28
2023-03-06T23:57:37.188Z,94815.79
